createdAt,value
2023-02-25T00:00:36.067Z,9.70
2023-02-25T00:03:06.922Z,9.40
2023-02-25T00:05:41.001Z,9.80
2023-02-25T00:08:20.273Z,9.50
2023-02-25T00:11:01.845Z,9.50
2023-02-25T00:13:29.480Z,9.30
2023-02-25T00:16:02.417Z,9.20
2023-02-25T00:18:32.401Z,9.30
2023-02-25T00:21:11.908Z,9.10
2023-02-25T00:23:51.511Z,9.40
2023-02-25T00:26:22.319Z,9.30
2023-02-25T00:28:50.760Z,9.20
2023-02-25T00:31:23.359Z,9.30
2023-02-25T00:33:59.643Z,9.50
2023-02-25T00:36:29.306Z,9.30
2023-02-25T00:38:59.106Z,9.50
2023-02-25T00:41:31.248Z,9.20
2023-02-25T00:44:02.674Z,9.40
2023-02-25T00:46:30.968Z,9.60
2023-02-25T00:48:59.323Z,9.30
2023-02-25T00:51:33.369Z,9.30
2023-02-25T00:54:03.033Z,9.40
2023-02-25T00:56:30.137Z,9.30
2023-02-25T00:58:57.956Z,9.20
2023-02-25T01:01:31.916Z,9.50
2023-02-25T01:04:04.529Z,9.20
2023-02-25T01:06:33.828Z,9.40
2023-02-25T01:09:02.093Z,9.30
2023-02-25T01:11:35.316Z,9.00
2023-02-25T01:16:57.633Z,9.20
2023-02-25T01:19:28.810Z,9.10
2023-02-25T01:21:58.800Z,9.10
2023-02-25T01:24:31.021Z,9.00
2023-02-25T01:27:07.463Z,8.90
2023-02-25T01:29:43.535Z,9.30
2023-02-25T01:32:14.527Z,8.90
2023-02-25T01:34:44.416Z,9.20
2023-02-25T01:37:20.433Z,8.80
2023-02-25T01:39:49.720Z,8.80
2023-02-25T01:42:23.376Z,9.30
2023-02-25T01:45:22.188Z,9.00
2023-02-25T01:48:23.040Z,9.30
2023-02-25T01:50:58.458Z,9.20
2023-02-25T01:53:30.978Z,9.00
2023-02-25T01:56:02.799Z,8.90
2023-02-25T01:58:33.896Z,9.20
2023-02-25T02:01:02.020Z,8.80
2023-02-25T02:03:45.214Z,8.90
2023-02-25T02:06:40.157Z,9.30
2023-02-25T02:09:12.269Z,9.10
2023-02-25T02:11:44.817Z,9.10
2023-02-25T02:14:16.139Z,8.90
2023-02-25T02:17:19.245Z,9.00
2023-02-25T02:19:52.706Z,8.90
2023-02-25T02:22:35.787Z,9.10
2023-02-25T02:25:36.316Z,9.00
2023-02-25T02:28:28.583Z,8.90
2023-02-25T02:31:04.634Z,9.10
2023-02-25T02:33:40.921Z,8.80
2023-02-25T02:36:42.132Z,8.90
2023-02-25T02:39:44.578Z,9.00
2023-02-25T02:42:28.227Z,8.80
2023-02-25T02:45:11.507Z,8.80
2023-02-25T02:48:00.506Z,8.90
2023-02-25T02:50:35.681Z,8.70
2023-02-25T02:53:10.241Z,8.60
2023-02-25T02:55:41.897Z,9.00
2023-02-25T02:58:21.361Z,8.60
2023-02-25T03:00:58.516Z,8.50
2023-02-25T03:03:39.968Z,8.60
2023-02-25T03:06:17.363Z,8.30
2023-02-25T03:08:57.371Z,8.40
2023-02-25T03:11:27.068Z,8.30
2023-02-25T03:13:54.458Z,8.30
2023-02-25T03:16:42.941Z,8.30
2023-02-25T03:19:15.507Z,8.30
2023-02-25T03:21:47.417Z,8.30
2023-02-25T03:24:22.651Z,8.10
2023-02-25T03:26:54.125Z,7.90
2023-02-25T03:29:23.764Z,7.90
2023-02-25T03:31:58.997Z,7.80
2023-02-25T03:34:32.399Z,7.80
2023-02-25T03:37:05.701Z,7.60
2023-02-25T03:39:40.370Z,8.00
2023-02-25T03:42:12.185Z,7.70
2023-02-25T03:44:45.393Z,7.50
2023-02-25T03:47:14.209Z,7.50
2023-02-25T03:49:50.866Z,7.40
2023-02-25T03:52:22.316Z,7.50
2023-02-25T03:54:53.834Z,7.50
2023-02-25T03:57:29.716Z,7.70
2023-02-25T03:59:57.151Z,7.60
2023-02-25T04:02:33.229Z,7.70
2023-02-25T04:05:03.486Z,7.60
2023-02-25T04:07:30.826Z,7.70
2023-02-25T04:09:58.046Z,7.40
2023-02-25T04:12:25.452Z,7.80
2023-02-25T04:14:52.718Z,7.50
2023-02-25T04:17:20.188Z,7.30
2023-02-25T04:19:58.500Z,7.80
2023-02-25T04:22:26.344Z,7.70
2023-02-25T04:24:54.332Z,7.40
2023-02-25T04:27:22.302Z,7.70
2023-02-25T04:29:49.607Z,7.40
2023-02-25T04:32:19.963Z,7.60
2023-02-25T04:34:49.948Z,7.60
2023-02-25T04:37:17.510Z,7.40
2023-02-25T04:39:47.089Z,7.40
2023-02-25T04:42:14.870Z,7.40
2023-02-25T04:44:45.258Z,7.40
2023-02-25T04:47:15.811Z,7.40
2023-02-25T04:49:45.581Z,7.50
2023-02-25T04:52:35.150Z,7.40
2023-02-25T04:55:06.212Z,7.40
2023-02-25T04:57:33.456Z,7.30
2023-02-25T05:00:03.397Z,7.30
2023-02-25T05:02:32.882Z,7.40
2023-02-25T05:05:24.220Z,7.40
2023-02-25T05:07:51.531Z,7.10
2023-02-25T05:10:19.192Z,7.30
2023-02-25T05:12:46.249Z,6.90
2023-02-25T05:15:13.688Z,7.00
2023-02-25T05:17:40.706Z,7.00
2023-02-25T05:20:26.574Z,6.80
2023-02-25T05:22:53.645Z,6.60
2023-02-25T05:25:27.167Z,6.80
2023-02-25T05:28:00.939Z,6.70
2023-02-25T05:30:28.412Z,6.80
2023-02-25T05:32:56.219Z,6.60
2023-02-25T05:35:24.218Z,6.60
2023-02-25T05:37:52.081Z,6.90
2023-02-25T05:40:19.856Z,6.80
2023-02-25T05:42:49.723Z,6.30
2023-02-25T05:45:26.651Z,6.70
2023-02-25T05:47:56.917Z,6.60
2023-02-25T05:50:41.856Z,6.30
2023-02-25T05:53:09.987Z,6.30
2023-02-25T05:55:42.369Z,6.80
2023-02-25T05:58:09.941Z,6.70
2023-02-25T06:00:38.232Z,6.50
2023-02-25T06:03:06.719Z,6.70
2023-02-25T06:05:34.206Z,6.70
2023-02-25T06:08:01.832Z,6.50
2023-02-25T06:10:29.338Z,6.60
2023-02-25T06:12:56.750Z,6.60
2023-02-25T06:15:24.303Z,6.50
2023-02-25T06:17:51.588Z,6.70
2023-02-25T06:20:19.269Z,6.70
2023-02-25T06:22:46.692Z,6.70
2023-02-25T06:25:14.802Z,6.60
2023-02-25T06:27:42.669Z,6.50
2023-02-25T06:30:10.933Z,6.70
2023-02-25T06:32:39.385Z,6.50
2023-02-25T06:35:11.343Z,6.60
2023-02-25T06:37:47.286Z,6.30
2023-02-25T06:40:15.790Z,6.30
2023-02-25T06:42:43.678Z,6.30
2023-02-25T06:45:12.039Z,5.90
2023-02-25T06:47:42.186Z,6.10
2023-02-25T06:50:16.833Z,6.10
2023-02-25T06:52:46.420Z,6.20
2023-02-25T06:55:14.136Z,6.10
2023-02-25T06:57:45.556Z,6.00
2023-02-25T07:00:16.360Z,5.90
2023-02-25T07:02:43.952Z,6.00
2023-02-25T07:05:14.113Z,6.00
2023-02-25T07:07:43.031Z,6.00
2023-02-25T07:10:12.635Z,6.00
2023-02-25T07:12:40.419Z,6.00
2023-02-25T07:15:08.941Z,6.00
2023-02-25T07:17:37.869Z,5.90
2023-02-25T07:20:12.216Z,5.90
2023-02-25T07:22:42.186Z,6.10
2023-02-25T07:25:12.113Z,6.20
2023-02-25T07:27:47.104Z,6.30
2023-02-25T07:30:18.253Z,6.20
2023-02-25T07:32:45.986Z,6.30
2023-02-25T07:35:13.706Z,6.20
2023-02-25T07:37:40.902Z,6.40
2023-02-25T07:40:13.135Z,6.70
2023-02-25T07:42:41.520Z,6.70
2023-02-25T07:45:11.331Z,6.80
2023-02-25T07:47:41.884Z,6.60
2023-02-25T07:50:12.876Z,6.50
2023-02-25T07:52:41.055Z,6.50
2023-02-25T07:55:10.890Z,6.40
2023-02-25T07:57:39.975Z,6.30
2023-02-25T08:00:10.938Z,6.20
2023-02-25T08:02:39.276Z,6.20
2023-02-25T08:05:07.263Z,6.20
2023-02-25T08:07:35.697Z,6.10
2023-02-25T08:10:04.993Z,6.10
2023-02-25T08:12:32.146Z,6.20
2023-02-25T08:15:02.423Z,6.10
2023-02-25T08:17:32.641Z,5.90
2023-02-25T08:20:00.280Z,6.00
2023-02-25T08:22:28.194Z,6.20
2023-02-25T08:24:58.339Z,6.20
2023-02-25T08:27:25.804Z,6.40
2023-02-25T08:29:53.284Z,6.40
2023-02-25T08:32:21.110Z,6.30
2023-02-25T08:34:51.452Z,6.50
2023-02-25T08:37:19.648Z,6.50
2023-02-25T08:39:47.191Z,6.90
2023-02-25T08:42:18.992Z,6.80
2023-02-25T08:44:51.414Z,7.10
2023-02-25T08:47:19.094Z,6.70
2023-02-25T08:49:48.299Z,6.90
2023-02-25T08:52:15.965Z,6.90
2023-02-25T08:54:52.886Z,7.40
2023-02-25T08:57:20.024Z,7.40
2023-02-25T08:59:47.637Z,7.50
2023-02-25T09:02:15.885Z,7.50
2023-02-25T09:04:51.296Z,7.30
2023-02-25T09:07:26.840Z,7.60
2023-02-25T09:12:54.176Z,7.60
2023-02-25T09:15:22.204Z,7.70
2023-02-25T09:17:53.233Z,7.50
2023-02-25T09:20:26.307Z,7.60
2023-02-25T09:23:03.072Z,7.80
2023-02-25T09:25:39.915Z,7.80
2023-02-25T09:28:08.290Z,7.80
2023-02-25T09:30:35.691Z,7.70
2023-02-25T09:33:03.049Z,7.80
2023-02-25T09:35:33.701Z,7.80
2023-02-25T09:38:00.983Z,7.80
2023-02-25T09:40:33.534Z,7.80
2023-02-25T09:43:14.148Z,7.70
2023-02-25T09:45:49.782Z,7.60
2023-02-25T09:48:46.611Z,7.40
2023-02-25T09:51:23.816Z,7.70
2023-02-25T09:54:26.350Z,7.70
2023-02-25T09:56:55.368Z,7.60
2023-02-25T09:59:32.039Z,7.70
2023-02-25T10:02:31.027Z,7.40
2023-02-25T10:05:51.966Z,7.40
2023-02-25T10:08:25.008Z,7.50
2023-02-25T10:11:02.003Z,7.50
2023-02-25T10:14:21.121Z,7.20
2023-02-25T10:17:00.180Z,7.60
2023-02-25T10:19:49.587Z,7.20
2023-02-25T10:22:17.612Z,7.50
2023-02-25T10:25:03.073Z,7.20
2023-02-25T10:27:37.696Z,7.40
2023-02-25T10:30:28.184Z,7.30
2023-02-25T10:32:58.521Z,7.60
2023-02-25T10:35:32.686Z,7.30
2023-02-25T10:38:00.372Z,7.20
2023-02-25T10:40:29.541Z,7.40
2023-02-25T10:43:20.449Z,7.20
2023-02-25T10:45:56.884Z,7.20
2023-02-25T10:48:25.957Z,7.60
2023-02-25T10:51:15.480Z,7.60
2023-02-25T10:53:58.351Z,7.70
2023-02-25T10:56:34.018Z,7.60
2023-02-25T10:59:24.454Z,7.40
2023-02-25T11:02:02.653Z,7.60
2023-02-25T11:04:42.529Z,7.20
2023-02-25T11:07:42.193Z,7.30
2023-02-25T11:10:18.473Z,7.70
2023-02-25T11:13:06.158Z,7.40
2023-02-25T11:21:17.803Z,8.60
2023-02-25T11:24:05.658Z,8.50
2023-02-25T11:26:44.503Z,8.20
2023-02-25T11:29:23.392Z,8.40
2023-02-25T11:31:59.301Z,8.20
2023-02-25T11:34:32.242Z,8.00
2023-02-25T11:37:29.937Z,7.80
2023-02-25T11:40:02.058Z,7.80
2023-02-25T11:42:31.645Z,7.70
2023-02-25T11:45:01.955Z,7.60
2023-02-25T11:47:40.232Z,7.40
2023-02-25T11:50:28.279Z,7.40
2023-02-25T11:53:13.715Z,7.10
2023-02-25T11:56:05.713Z,7.30
2023-02-25T11:58:56.414Z,6.90
2023-02-25T12:01:43.722Z,6.80
2023-02-25T12:04:45.514Z,6.60
2023-02-25T12:07:55.420Z,6.60
2023-02-25T12:11:10.227Z,6.50
2023-02-25T12:13:53.213Z,6.50
2023-02-25T12:16:58.930Z,6.90
2023-02-25T12:19:32.588Z,6.70
2023-02-25T12:22:14.983Z,7.10
2023-02-25T12:24:56.907Z,6.70
2023-02-25T12:27:58.777Z,7.00
2023-02-25T12:30:45.156Z,7.10
2023-02-25T12:33:22.058Z,6.90
2023-02-25T12:36:22.906Z,7.30
2023-02-25T12:39:09.701Z,7.10
2023-02-25T12:42:06.560Z,6.90
2023-02-25T12:44:55.390Z,7.20
2023-02-25T12:47:48.105Z,7.30
2023-02-25T12:50:31.003Z,6.90
2023-02-25T12:53:29.969Z,6.90
2023-02-25T12:56:19.277Z,7.10
2023-02-25T12:59:16.987Z,6.80
2023-02-25T13:02:23.384Z,7.00
2023-02-25T13:05:14.739Z,6.90
2023-02-25T13:07:51.684Z,6.80
2023-02-25T13:10:32.183Z,6.90
2023-02-25T13:13:22.523Z,7.00
2023-02-25T13:16:16.424Z,6.80
2023-02-25T13:19:15.906Z,6.80
2023-02-25T13:22:12.285Z,6.80
2023-02-25T13:25:15.226Z,6.80
2023-02-25T13:28:21.455Z,6.80
2023-02-25T13:31:06.819Z,6.90
2023-02-25T13:34:25.648Z,6.80
2023-02-25T13:37:20.272Z,6.80
2023-02-25T13:39:55.666Z,6.80
2023-02-25T13:42:45.994Z,6.80
2023-02-25T13:45:38.873Z,6.70
2023-02-25T13:48:39.218Z,6.50
2023-02-25T13:51:44.718Z,6.50
2023-02-25T13:54:38.669Z,6.90
2023-02-25T14:00:31.635Z,6.70
2023-02-25T14:03:17.991Z,6.80
2023-02-25T14:05:54.606Z,6.80
2023-02-25T14:09:03.425Z,6.70
2023-02-25T14:11:55.616Z,6.50
2023-02-25T14:14:48.424Z,6.60
2023-02-25T14:17:52.048Z,6.70
2023-02-25T14:20:40.780Z,6.60
2023-02-25T14:23:28.889Z,6.60
2023-02-25T14:26:29.878Z,6.40
2023-02-25T14:29:38.721Z,6.40
2023-02-25T14:32:31.547Z,6.40
2023-02-25T14:35:22.777Z,6.40
2023-02-25T14:38:11.820Z,6.40
2023-02-25T14:41:15.071Z,6.30
2023-02-25T14:43:49.417Z,6.50
2023-02-25T14:46:43.404Z,6.10
2023-02-25T14:49:30.573Z,6.40
2023-02-25T14:52:24.497Z,6.10
2023-02-25T14:55:20.151Z,6.10
2023-02-25T14:58:20.552Z,6.10
2023-02-25T15:01:05.315Z,6.20
2023-02-25T15:03:43.967Z,6.20
2023-02-25T15:06:22.393Z,6.30
2023-02-25T15:09:11.898Z,6.00
2023-02-25T15:12:03.889Z,6.20
2023-02-25T15:14:54.175Z,5.90
2023-02-25T15:17:43.225Z,6.10
2023-02-25T15:20:39.098Z,6.10
2023-02-25T15:23:16.264Z,6.10
2023-02-25T15:25:53.382Z,6.00
2023-02-25T15:28:33.184Z,6.10
2023-02-25T15:31:03.255Z,6.00
2023-02-25T15:33:38.768Z,6.10
2023-02-25T15:36:15.485Z,5.80
2023-02-25T15:38:51.524Z,5.80
2023-02-25T15:41:30.528Z,5.70
2023-02-25T15:44:25.964Z,5.90
2023-02-25T15:47:16.810Z,5.80
2023-02-25T15:52:55.550Z,6.10
2023-02-25T15:55:43.988Z,6.00
2023-02-25T15:58:37.865Z,6.10
2023-02-25T16:01:09.302Z,6.10
2023-02-25T16:03:36.545Z,6.20
2023-02-25T16:06:27.757Z,6.00
2023-02-25T16:09:01.731Z,6.20
2023-02-25T16:11:56.522Z,5.90
2023-02-25T16:14:30.228Z,5.80
2023-02-25T16:17:03.768Z,5.90
2023-02-25T16:19:36.911Z,5.90
2023-02-25T16:22:09.973Z,5.80
2023-02-25T16:24:37.926Z,5.90
2023-02-25T16:27:11.881Z,5.80
2023-02-25T16:33:22.563Z,5.80
2023-02-25T16:36:18.579Z,5.60
2023-02-25T16:39:03.980Z,5.80
2023-02-25T16:41:38.468Z,5.80
2023-02-25T16:44:10.122Z,5.80
2023-02-25T16:46:40.216Z,5.80
2023-02-25T16:49:32.238Z,5.90
2023-02-25T16:52:07.601Z,5.70
2023-02-25T16:54:38.641Z,5.60
2023-02-25T16:57:09.653Z,5.60
2023-02-25T16:59:38.674Z,5.80
2023-02-25T17:02:15.540Z,5.70
2023-02-25T17:04:50.529Z,5.50
2023-02-25T17:07:39.386Z,5.50
2023-02-25T17:10:08.180Z,5.50
2023-02-25T17:12:35.316Z,5.90
2023-02-25T17:15:13.433Z,5.50
2023-02-25T17:17:43.629Z,5.40
2023-02-25T17:20:31.321Z,5.50
2023-02-25T17:23:05.614Z,6.10
2023-02-25T17:25:44.808Z,6.30
2023-02-25T17:28:30.934Z,6.40
2023-02-25T17:31:18.422Z,6.20
2023-02-25T17:33:57.762Z,6.10
2023-02-25T17:36:30.627Z,6.10
2023-02-25T17:39:22.160Z,5.90
2023-02-25T17:41:49.976Z,5.80
2023-02-25T17:44:44.687Z,5.80
2023-02-25T17:47:21.584Z,5.60
2023-02-25T17:52:35.976Z,5.50
2023-02-25T17:55:08.334Z,5.60
2023-02-25T17:57:42.574Z,5.50
2023-02-25T18:00:29.728Z,5.30
2023-02-25T18:03:19.352Z,5.40
2023-02-25T18:06:08.686Z,5.50
2023-02-25T18:08:55.947Z,5.50
2023-02-25T18:11:36.375Z,5.50
2023-02-25T18:14:43.507Z,5.60
2023-02-25T18:20:43.299Z,5.50
2023-02-25T18:23:21.784Z,5.60
2023-02-25T18:26:10.413Z,5.70
2023-02-25T18:28:39.085Z,5.50
2023-02-25T18:31:10.412Z,5.40
2023-02-25T18:33:38.257Z,5.60
2023-02-25T18:36:07.989Z,5.60
2023-02-25T18:38:41.850Z,5.50
2023-02-25T18:41:12.380Z,5.50
2023-02-25T18:43:44.900Z,5.40
2023-02-25T18:46:12.521Z,5.50
2023-02-25T18:48:52.462Z,5.20
2023-02-25T18:51:20.072Z,5.50
2023-02-25T18:53:47.513Z,5.50
2023-02-25T18:56:18.300Z,5.60
2023-02-25T18:58:46.003Z,5.60
2023-02-25T19:01:23.640Z,5.60
2023-02-25T19:03:51.570Z,5.80
2023-02-25T19:06:19.923Z,5.80
2023-02-25T19:08:47.301Z,5.60
2023-02-25T19:11:20.765Z,5.70
2023-02-25T19:13:47.856Z,5.50
2023-02-25T19:16:18.144Z,5.40
2023-02-25T19:18:47.541Z,5.60
2023-02-25T19:21:17.989Z,5.60
2023-02-25T19:23:51.753Z,5.60
2023-02-25T19:26:23.645Z,5.50
2023-02-25T19:28:51.088Z,5.50
2023-02-25T19:31:30.828Z,5.40
2023-02-25T19:34:03.907Z,5.60
2023-02-25T19:36:46.720Z,5.60
2023-02-25T19:42:15.980Z,5.60
2023-02-25T19:44:43.593Z,5.70
2023-02-25T19:47:11.385Z,5.40
2023-02-25T19:49:38.919Z,5.70
2023-02-25T19:52:13.646Z,5.40
2023-02-25T19:54:42.353Z,5.50
2023-02-25T19:57:31.645Z,5.60
2023-02-25T20:00:02.793Z,5.60
2023-02-25T20:02:30.451Z,5.50
2023-02-25T20:04:59.047Z,5.30
2023-02-25T20:07:26.399Z,5.40
2023-02-25T20:09:54.055Z,5.40
2023-02-25T20:12:21.800Z,5.50
2023-02-25T20:14:52.939Z,5.40
2023-02-25T20:17:20.588Z,5.30
2023-02-25T20:19:50.584Z,5.40
2023-02-25T20:22:21.410Z,5.30
2023-02-25T20:24:51.136Z,5.40
2023-02-25T20:27:19.001Z,5.20
2023-02-25T20:29:46.671Z,5.30
2023-02-25T20:32:14.460Z,5.10
2023-02-25T20:34:41.926Z,5.20
2023-02-25T20:37:21.522Z,5.40
2023-02-25T20:39:57.658Z,5.20
2023-02-25T20:42:30.746Z,5.30
2023-02-25T20:45:00.198Z,5.20
2023-02-25T20:47:37.579Z,5.30
2023-02-25T20:50:16.306Z,5.30
2023-02-25T20:52:44.164Z,5.50
2023-02-25T20:55:11.767Z,5.10
2023-02-25T20:57:38.922Z,5.40
2023-02-25T21:00:09.338Z,5.40
2023-02-25T21:02:36.674Z,5.50
2023-02-25T21:05:07.787Z,5.30
2023-02-25T21:07:35.009Z,5.40
2023-02-25T21:10:02.418Z,5.00
2023-02-25T21:12:29.896Z,5.10
2023-02-25T21:14:59.672Z,5.10
2023-02-25T21:17:27.261Z,4.90
2023-02-25T21:19:54.598Z,4.80
2023-02-25T21:22:22.108Z,5.20
2023-02-25T21:24:51.486Z,5.30
2023-02-25T21:27:24.038Z,5.20
2023-02-25T21:29:57.257Z,4.80
2023-02-25T21:32:24.985Z,5.30
2023-02-25T21:34:54.727Z,5.00
2023-02-25T21:37:25.463Z,5.00
2023-02-25T21:39:53.091Z,5.00
2023-02-25T21:42:21.895Z,4.80
2023-02-25T21:44:49.086Z,4.90
2023-02-25T21:47:16.581Z,5.00
2023-02-25T21:49:45.366Z,4.80
2023-02-25T21:52:12.783Z,4.90
2023-02-25T21:54:39.978Z,4.80
2023-02-25T21:57:10.811Z,4.70
2023-02-25T21:59:47.592Z,5.00
2023-02-25T22:02:15.018Z,4.70
2023-02-25T22:04:42.403Z,4.90
2023-02-25T22:07:11.547Z,5.00
2023-02-25T22:09:39.020Z,5.00
2023-02-25T22:12:06.345Z,4.60
2023-02-25T22:14:34.371Z,4.60
2023-02-25T22:17:02.265Z,4.80
2023-02-25T22:19:29.637Z,4.70
2023-02-25T22:21:56.829Z,4.70
2023-02-25T22:24:24.312Z,4.80
2023-02-25T22:26:54.783Z,4.80
2023-02-25T22:29:22.474Z,4.90
2023-02-25T22:31:50.369Z,5.00
2023-02-25T22:34:18.314Z,4.80
2023-02-25T22:36:48.453Z,4.80
2023-02-25T22:39:16.315Z,5.00
2023-02-25T22:41:45.449Z,5.00
2023-02-25T22:44:13.349Z,4.70
2023-02-25T22:46:41.589Z,4.90
2023-02-25T22:49:10.800Z,4.50
2023-02-25T22:51:45.570Z,4.60
2023-02-25T22:54:14.514Z,4.70
2023-02-25T22:56:43.426Z,4.70
2023-02-25T22:59:12.251Z,4.70
2023-02-25T23:01:42.129Z,4.70
2023-02-25T23:04:09.498Z,4.30
2023-02-25T23:06:43.907Z,4.70
2023-02-25T23:09:14.124Z,4.40
2023-02-25T23:11:43.035Z,4.20
2023-02-25T23:14:10.472Z,4.40
2023-02-25T23:16:41.709Z,4.50
2023-02-25T23:19:11.769Z,4.50
2023-02-25T23:21:39.610Z,4.40
2023-02-25T23:24:07.923Z,4.30
2023-02-25T23:26:42.911Z,4.30
2023-02-25T23:29:15.236Z,4.20
2023-02-25T23:31:48.454Z,4.40
2023-02-25T23:34:23.487Z,4.40
2023-02-25T23:36:51.009Z,4.40
2023-02-25T23:39:18.514Z,4.20
2023-02-25T23:44:24.502Z,4.20
2023-02-25T23:47:20.774Z,4.30
2023-02-25T23:49:48.057Z,4.40
2023-02-25T23:52:15.333Z,4.20
2023-02-25T23:54:42.455Z,4.10
2023-02-25T23:57:13.277Z,3.90
2023-02-25T23:59:42.484Z,4.00
